sensor_id;sensor_type;location;lat;lon;timestamp;temperature;humidity
4874;DHT22;2451;49.970;9.068;2023-04-06T00:00:30;2.30;99.90
4874;DHT22;2451;49.970;9.068;2023-04-06T00:02:56;2.30;99.90
4874;DHT22;2451;49.970;9.068;2023-04-06T00:05:21;2.30;99.90
4874;DHT22;2451;49.970;9.068;2023-04-06T00:07:48;2.20;99.90
4874;DHT22;2451;49.970;9.068;2023-04-06T00:10:14;2.20;99.90
4874;DHT22;2451;49.970;9.068;2023-04-06T00:12:39;2.30;99.90
4874;DHT22;2451;49.970;9.068;2023-04-06T00:15:06;2.20;99.90
4874;DHT22;2451;49.970;9.068;2023-04-06T00:17:31;2.10;99.90
4874;DHT22;2451;49.970;9.068;2023-04-06T00:19:57;2.10;99.90
4874;DHT22;2451;49.970;9.068;2023-04-06T00:22:23;2.00;99.90
4874;DHT22;2451;49.970;9.068;2023-04-06T00:24:48;2.00;99.90
4874;DHT22;2451;49.970;9.068;2023-04-06T00:27:13;1.90;99.90
4874;DHT22;2451;49.970;9.068;2023-04-06T00:29:40;1.90;99.90
4874;DHT22;2451;49.970;9.068;2023-04-06T00:32:05;1.90;99.90
4874;DHT22;2451;49.970;9.068;2023-04-06T00:34:31;2.00;99.90
4874;DHT22;2451;49.970;9.068;2023-04-06T00:36:57;2.00;99.90
4874;DHT22;2451;49.970;9.068;2023-04-06T00:39:22;2.00;99.90
4874;DHT22;2451;49.970;9.068;2023-04-06T00:41:51;2.10;99.90
4874;DHT22;2451;49.970;9.068;2023-04-06T00:44:18;2.00;99.90
4874;DHT22;2451;49.970;9.068;2023-04-06T00:46:44;2.10;99.90
4874;DHT22;2451;49.970;9.068;2023-04-06T00:49:09;2.10;99.90
4874;DHT22;2451;49.970;9.068;2023-04-06T00:51:35;2.10;99.90
4874;DHT22;2451;49.970;9.068;2023-04-06T00:54:01;2.10;99.90
4874;DHT22;2451;49.970;9.068;2023-04-06T00:56:26;2.10;99.90
4874;DHT22;2451;49.970;9.068;2023-04-06T00:58:52;2.10;99.90
4874;DHT22;2451;49.970;9.068;2023-04-06T01:01:18;2.10;99.90
4874;DHT22;2451;49.970;9.068;2023-04-06T01:03:44;2.00;99.90
4874;DHT22;2451;49.970;9.068;2023-04-06T01:06:09;2.00;99.90
4874;DHT22;2451;49.970;9.068;2023-04-06T01:08:36;1.90;99.90
4874;DHT22;2451;49.970;9.068;2023-04-06T01:11:01;1.80;99.90
4874;DHT22;2451;49.970;9.068;2023-04-06T01:13:27;1.70;99.90
4874;DHT22;2451;49.970;9.068;2023-04-06T01:15:53;1.70;99.90
4874;DHT22;2451;49.970;9.068;2023-04-06T01:18:19;1.60;99.90
4874;DHT22;2451;49.970;9.068;2023-04-06T01:20:50;1.60;99.90
4874;DHT22;2451;49.970;9.068;2023-04-06T01:23:16;1.60;99.90
4874;DHT22;2451;49.970;9.068;2023-04-06T01:25:42;1.50;99.90
4874;DHT22;2451;49.970;9.068;2023-04-06T01:28:07;1.50;99.90
4874;DHT22;2451;49.970;9.068;2023-04-06T01:30:33;1.50;99.90
4874;DHT22;2451;49.970;9.068;2023-04-06T01:32:58;1.50;99.90
4874;DHT22;2451;49.970;9.068;2023-04-06T01:35:26;1.50;99.90
4874;DHT22;2451;49.970;9.068;2023-04-06T01:37:52;1.50;99.90
4874;DHT22;2451;49.970;9.068;2023-04-06T01:40:17;1.50;99.90
4874;DHT22;2451;49.970;9.068;2023-04-06T01:42:43;1.50;99.90
4874;DHT22;2451;49.970;9.068;2023-04-06T01:45:09;1.50;99.90
4874;DHT22;2451;49.970;9.068;2023-04-06T01:47:34;1.50;99.90
4874;DHT22;2451;49.970;9.068;2023-04-06T01:50:00;1.50;99.90
4874;DHT22;2451;49.970;9.068;2023-04-06T01:52:25;1.50;99.90
4874;DHT22;2451;49.970;9.068;2023-04-06T01:54:51;1.50;99.90
4874;DHT22;2451;49.970;9.068;2023-04-06T01:57:16;1.50;99.90
4874;DHT22;2451;49.970;9.068;2023-04-06T01:59:42;1.40;99.90
4874;DHT22;2451;49.970;9.068;2023-04-06T02:02:07;1.40;99.90
4874;DHT22;2451;49.970;9.068;2023-04-06T02:04:33;1.40;99.90
4874;DHT22;2451;49.970;9.068;2023-04-06T02:06:58;1.40;99.90
4874;DHT22;2451;49.970;9.068;2023-04-06T02:09:24;1.40;99.90
4874;DHT22;2451;49.970;9.068;2023-04-06T02:11:50;1.40;99.90
4874;DHT22;2451;49.970;9.068;2023-04-06T02:14:15;1.30;99.90
4874;DHT22;2451;49.970;9.068;2023-04-06T02:16:41;1.30;99.90
4874;DHT22;2451;49.970;9.068;2023-04-06T02:19:06;1.30;99.90
4874;DHT22;2451;49.970;9.068;2023-04-06T02:21:32;1.30;99.90
4874;DHT22;2451;49.970;9.068;2023-04-06T02:23:57;1.20;99.90
4874;DHT22;2451;49.970;9.068;2023-04-06T02:26:23;1.20;99.90
4874;DHT22;2451;49.970;9.068;2023-04-06T02:28:48;1.20;99.90
4874;DHT22;2451;49.970;9.068;2023-04-06T02:31:14;1.20;99.90
4874;DHT22;2451;49.970;9.068;2023-04-06T02:33:40;1.20;99.90
4874;DHT22;2451;49.970;9.068;2023-04-06T02:36:06;1.20;99.90
4874;DHT22;2451;49.970;9.068;2023-04-06T02:38:32;1.10;99.90
4874;DHT22;2451;49.970;9.068;2023-04-06T02:40:57;1.10;99.90
4874;DHT22;2451;49.970;9.068;2023-04-06T02:43:23;1.10;99.90
4874;DHT22;2451;49.970;9.068;2023-04-06T02:45:48;1.10;99.90
4874;DHT22;2451;49.970;9.068;2023-04-06T02:48:14;1.00;99.90
4874;DHT22;2451;49.970;9.068;2023-04-06T02:50:40;1.00;99.90
4874;DHT22;2451;49.970;9.068;2023-04-06T02:53:05;1.00;99.90
4874;DHT22;2451;49.970;9.068;2023-04-06T02:55:31;1.00;99.90
4874;DHT22;2451;49.970;9.068;2023-04-06T02:57:56;0.90;99.90
4874;DHT22;2451;49.970;9.068;2023-04-06T03:00:22;0.90;99.90
4874;DHT22;2451;49.970;9.068;2023-04-06T03:02:47;0.90;99.90
4874;DHT22;2451;49.970;9.068;2023-04-06T03:05:13;0.90;99.90
4874;DHT22;2451;49.970;9.068;2023-04-06T03:07:38;0.90;99.90
4874;DHT22;2451;49.970;9.068;2023-04-06T03:10:04;1.00;99.90
4874;DHT22;2451;49.970;9.068;2023-04-06T03:12:30;1.00;99.90
4874;DHT22;2451;49.970;9.068;2023-04-06T03:14:56;1.00;99.90
4874;DHT22;2451;49.970;9.068;2023-04-06T03:17:21;0.90;99.90
4874;DHT22;2451;49.970;9.068;2023-04-06T03:19:47;0.90;99.90
4874;DHT22;2451;49.970;9.068;2023-04-06T03:22:12;0.90;99.90
4874;DHT22;2451;49.970;9.068;2023-04-06T03:24:38;0.90;99.90
4874;DHT22;2451;49.970;9.068;2023-04-06T03:27:03;0.90;99.90
4874;DHT22;2451;49.970;9.068;2023-04-06T03:29:29;0.90;99.90
4874;DHT22;2451;49.970;9.068;2023-04-06T03:31:55;0.80;99.90
4874;DHT22;2451;49.970;9.068;2023-04-06T03:34:20;0.90;99.90
4874;DHT22;2451;49.970;9.068;2023-04-06T03:36:46;0.90;99.90
4874;DHT22;2451;49.970;9.068;2023-04-06T03:39:12;0.90;99.90
4874;DHT22;2451;49.970;9.068;2023-04-06T03:41:37;0.90;99.90
4874;DHT22;2451;49.970;9.068;2023-04-06T03:44:04;0.90;99.90
4874;DHT22;2451;49.970;9.068;2023-04-06T03:46:30;1.00;99.90
4874;DHT22;2451;49.970;9.068;2023-04-06T03:48:55;0.90;99.90
4874;DHT22;2451;49.970;9.068;2023-04-06T03:51:21;0.90;99.90
4874;DHT22;2451;49.970;9.068;2023-04-06T03:53:47;0.90;99.90
4874;DHT22;2451;49.970;9.068;2023-04-06T03:56:13;0.80;99.90
4874;DHT22;2451;49.970;9.068;2023-04-06T03:58:38;0.80;99.90
4874;DHT22;2451;49.970;9.068;2023-04-06T04:01:04;0.80;99.90
4874;DHT22;2451;49.970;9.068;2023-04-06T04:03:30;0.70;99.90
4874;DHT22;2451;49.970;9.068;2023-04-06T04:05:55;0.70;99.90
4874;DHT22;2451;49.970;9.068;2023-04-06T04:08:21;0.70;99.90
4874;DHT22;2451;49.970;9.068;2023-04-06T04:10:47;0.70;99.90
4874;DHT22;2451;49.970;9.068;2023-04-06T04:13:12;0.70;99.90
4874;DHT22;2451;49.970;9.068;2023-04-06T04:15:37;0.70;99.90
4874;DHT22;2451;49.970;9.068;2023-04-06T04:18:03;0.60;99.90
4874;DHT22;2451;49.970;9.068;2023-04-06T04:20:29;0.60;99.90
4874;DHT22;2451;49.970;9.068;2023-04-06T04:22:54;0.60;99.90
4874;DHT22;2451;49.970;9.068;2023-04-06T04:25:20;0.60;99.90
4874;DHT22;2451;49.970;9.068;2023-04-06T04:27:45;0.60;99.90
4874;DHT22;2451;49.970;9.068;2023-04-06T04:30:11;0.60;99.90
4874;DHT22;2451;49.970;9.068;2023-04-06T04:32:37;0.50;99.90
4874;DHT22;2451;49.970;9.068;2023-04-06T04:35:02;0.50;99.90
4874;DHT22;2451;49.970;9.068;2023-04-06T04:37:28;0.40;99.90
4874;DHT22;2451;49.970;9.068;2023-04-06T04:39:54;0.40;99.90
4874;DHT22;2451;49.970;9.068;2023-04-06T04:42:19;0.40;99.90
4874;DHT22;2451;49.970;9.068;2023-04-06T04:44:45;0.40;99.90
4874;DHT22;2451;49.970;9.068;2023-04-06T04:47:10;0.30;99.90
4874;DHT22;2451;49.970;9.068;2023-04-06T04:49:36;0.30;99.90
4874;DHT22;2451;49.970;9.068;2023-04-06T04:52:01;0.30;99.90
4874;DHT22;2451;49.970;9.068;2023-04-06T04:54:27;0.30;99.90
4874;DHT22;2451;49.970;9.068;2023-04-06T04:56:52;0.30;99.90
4874;DHT22;2451;49.970;9.068;2023-04-06T04:59:19;0.30;99.90
4874;DHT22;2451;49.970;9.068;2023-04-06T05:01:45;0.30;99.90
4874;DHT22;2451;49.970;9.068;2023-04-06T05:04:10;0.30;99.90
4874;DHT22;2451;49.970;9.068;2023-04-06T05:06:36;0.40;99.90
4874;DHT22;2451;49.970;9.068;2023-04-06T05:09:01;0.40;99.90
4874;DHT22;2451;49.970;9.068;2023-04-06T05:11:27;0.50;99.90
4874;DHT22;2451;49.970;9.068;2023-04-06T05:13:53;0.50;99.90
4874;DHT22;2451;49.970;9.068;2023-04-06T05:16:19;0.50;99.90
4874;DHT22;2451;49.970;9.068;2023-04-06T05:18:44;0.50;99.90
4874;DHT22;2451;49.970;9.068;2023-04-06T05:21:11;0.50;99.90
4874;DHT22;2451;49.970;9.068;2023-04-06T05:23:37;0.60;99.90
4874;DHT22;2451;49.970;9.068;2023-04-06T05:26:02;0.60;99.90
4874;DHT22;2451;49.970;9.068;2023-04-06T05:28:28;0.60;99.90
4874;DHT22;2451;49.970;9.068;2023-04-06T05:30:53;0.60;99.90
4874;DHT22;2451;49.970;9.068;2023-04-06T05:33:19;0.60;99.90
4874;DHT22;2451;49.970;9.068;2023-04-06T05:35:44;0.70;99.90
4874;DHT22;2451;49.970;9.068;2023-04-06T05:38:10;0.80;99.90
4874;DHT22;2451;49.970;9.068;2023-04-06T05:40:37;0.80;99.90
4874;DHT22;2451;49.970;9.068;2023-04-06T05:43:03;0.90;99.90
4874;DHT22;2451;49.970;9.068;2023-04-06T05:45:29;1.00;99.90
4874;DHT22;2451;49.970;9.068;2023-04-06T05:47:55;1.10;99.90
4874;DHT22;2451;49.970;9.068;2023-04-06T05:50:20;1.20;99.90
4874;DHT22;2451;49.970;9.068;2023-04-06T05:52:47;1.20;99.90
4874;DHT22;2451;49.970;9.068;2023-04-06T05:55:13;1.30;99.90
4874;DHT22;2451;49.970;9.068;2023-04-06T05:57:38;1.30;99.90
4874;DHT22;2451;49.970;9.068;2023-04-06T06:00:07;1.30;99.90
4874;DHT22;2451;49.970;9.068;2023-04-06T06:02:35;1.40;99.90
4874;DHT22;2451;49.970;9.068;2023-04-06T06:05:01;1.40;99.90
4874;DHT22;2451;49.970;9.068;2023-04-06T06:07:27;1.40;99.90
4874;DHT22;2451;49.970;9.068;2023-04-06T06:09:56;1.50;99.90
4874;DHT22;2451;49.970;9.068;2023-04-06T06:12:23;1.60;99.90
4874;DHT22;2451;49.970;9.068;2023-04-06T06:14:48;1.60;99.90
4874;DHT22;2451;49.970;9.068;2023-04-06T06:17:14;1.70;99.90
4874;DHT22;2451;49.970;9.068;2023-04-06T06:19:40;1.80;99.90
4874;DHT22;2451;49.970;9.068;2023-04-06T06:22:06;1.90;99.90
4874;DHT22;2451;49.970;9.068;2023-04-06T06:24:31;2.00;99.90
4874;DHT22;2451;49.970;9.068;2023-04-06T06:26:57;2.20;99.90
4874;DHT22;2451;49.970;9.068;2023-04-06T06:29:23;2.30;99.90
4874;DHT22;2451;49.970;9.068;2023-04-06T06:31:49;2.40;99.90
4874;DHT22;2451;49.970;9.068;2023-04-06T06:34:15;2.60;99.90
4874;DHT22;2451;49.970;9.068;2023-04-06T06:36:40;2.70;99.90
4874;DHT22;2451;49.970;9.068;2023-04-06T06:39:06;3.00;99.90
4874;DHT22;2451;49.970;9.068;2023-04-06T06:41:31;3.20;99.90
4874;DHT22;2451;49.970;9.068;2023-04-06T06:43:57;3.10;99.90
4874;DHT22;2451;49.970;9.068;2023-04-06T06:46:22;3.10;99.90
4874;DHT22;2451;49.970;9.068;2023-04-06T06:48:48;3.10;99.90
4874;DHT22;2451;49.970;9.068;2023-04-06T06:51:13;3.20;99.90
4874;DHT22;2451;49.970;9.068;2023-04-06T06:53:39;3.30;99.90
4874;DHT22;2451;49.970;9.068;2023-04-06T06:56:05;3.40;99.90
4874;DHT22;2451;49.970;9.068;2023-04-06T06:58:31;3.40;99.90
4874;DHT22;2451;49.970;9.068;2023-04-06T07:00:58;3.50;99.90
4874;DHT22;2451;49.970;9.068;2023-04-06T07:03:24;3.70;99.90
4874;DHT22;2451;49.970;9.068;2023-04-06T07:05:50;3.90;99.90
4874;DHT22;2451;49.970;9.068;2023-04-06T07:08:19;4.10;99.90
4874;DHT22;2451;49.970;9.068;2023-04-06T07:10:45;4.30;99.90
4874;DHT22;2451;49.970;9.068;2023-04-06T07:13:10;4.50;99.90
4874;DHT22;2451;49.970;9.068;2023-04-06T07:15:36;4.50;99.90
4874;DHT22;2451;49.970;9.068;2023-04-06T07:18:02;4.50;99.90
4874;DHT22;2451;49.970;9.068;2023-04-06T07:20:28;4.70;99.90
4874;DHT22;2451;49.970;9.068;2023-04-06T07:22:53;4.90;99.90
4874;DHT22;2451;49.970;9.068;2023-04-06T07:25:19;5.10;99.90
4874;DHT22;2451;49.970;9.068;2023-04-06T07:27:45;5.40;99.90
4874;DHT22;2451;49.970;9.068;2023-04-06T07:30:11;5.60;99.90
4874;DHT22;2451;49.970;9.068;2023-04-06T07:32:36;5.80;99.90
4874;DHT22;2451;49.970;9.068;2023-04-06T07:35:02;5.90;99.90
4874;DHT22;2451;49.970;9.068;2023-04-06T07:37:28;6.10;99.90
4874;DHT22;2451;49.970;9.068;2023-04-06T07:39:53;6.30;99.90
4874;DHT22;2451;49.970;9.068;2023-04-06T07:42:19;6.40;99.90
4874;DHT22;2451;49.970;9.068;2023-04-06T07:44:45;6.60;99.90
4874;DHT22;2451;49.970;9.068;2023-04-06T07:47:10;6.90;99.90
4874;DHT22;2451;49.970;9.068;2023-04-06T07:49:36;7.10;99.90
4874;DHT22;2451;49.970;9.068;2023-04-06T07:52:02;7.40;99.90
4874;DHT22;2451;49.970;9.068;2023-04-06T07:54:28;7.50;99.90
4874;DHT22;2451;49.970;9.068;2023-04-06T07:56:53;7.80;99.90
4874;DHT22;2451;49.970;9.068;2023-04-06T07:59:19;8.00;99.90
4874;DHT22;2451;49.970;9.068;2023-04-06T08:01:45;8.20;99.90
4874;DHT22;2451;49.970;9.068;2023-04-06T08:04:11;8.30;99.90
4874;DHT22;2451;49.970;9.068;2023-04-06T08:06:36;8.50;99.20
4874;DHT22;2451;49.970;9.068;2023-04-06T08:09:02;8.80;98.90
4874;DHT22;2451;49.970;9.068;2023-04-06T08:11:28;9.00;98.10
4874;DHT22;2451;49.970;9.068;2023-04-06T08:13:54;9.10;97.80
4874;DHT22;2451;49.970;9.068;2023-04-06T08:16:22;9.10;96.60
4874;DHT22;2451;49.970;9.068;2023-04-06T08:18:47;9.30;96.80
4874;DHT22;2451;49.970;9.068;2023-04-06T08:21:13;9.40;95.90
4874;DHT22;2451;49.970;9.068;2023-04-06T08:23:38;9.40;95.10
4874;DHT22;2451;49.970;9.068;2023-04-06T08:26:04;9.40;94.30
4874;DHT22;2451;49.970;9.068;2023-04-06T08:28:30;9.50;95.50
4874;DHT22;2451;49.970;9.068;2023-04-06T08:30:55;9.70;94.40
4874;DHT22;2451;49.970;9.068;2023-04-06T08:33:21;9.90;94.00
4874;DHT22;2451;49.970;9.068;2023-04-06T08:35:46;10.10;93.60
4874;DHT22;2451;49.970;9.068;2023-04-06T08:38:12;10.30;93.00
4874;DHT22;2451;49.970;9.068;2023-04-06T08:40:38;10.40;92.20
4874;DHT22;2451;49.970;9.068;2023-04-06T08:43:06;10.50;91.40
4874;DHT22;2451;49.970;9.068;2023-04-06T08:45:34;10.70;91.00
4874;DHT22;2451;49.970;9.068;2023-04-06T08:48:01;10.80;90.40
4874;DHT22;2451;49.970;9.068;2023-04-06T08:50:29;11.10;90.80
4874;DHT22;2451;49.970;9.068;2023-04-06T08:52:55;11.20;88.90
4874;DHT22;2451;49.970;9.068;2023-04-06T08:55:21;11.30;89.10
4874;DHT22;2451;49.970;9.068;2023-04-06T08:57:47;11.60;88.30
4874;DHT22;2451;49.970;9.068;2023-04-06T09:00:14;11.70;88.60
4874;DHT22;2451;49.970;9.068;2023-04-06T09:02:42;11.70;85.40
4874;DHT22;2451;49.970;9.068;2023-04-06T09:05:09;12.00;85.90
4874;DHT22;2451;49.970;9.068;2023-04-06T09:07:37;12.20;84.40
4874;DHT22;2451;49.970;9.068;2023-04-06T09:10:04;12.50;85.00
4874;DHT22;2451;49.970;9.068;2023-04-06T09:12:31;12.80;83.60
4874;DHT22;2451;49.970;9.068;2023-04-06T09:14:58;13.10;81.20
4874;DHT22;2451;49.970;9.068;2023-04-06T09:17:28;13.20;80.20
4874;DHT22;2451;49.970;9.068;2023-04-06T09:19:54;13.50;80.70
4874;DHT22;2451;49.970;9.068;2023-04-06T09:22:21;13.60;78.50
4874;DHT22;2451;49.970;9.068;2023-04-06T09:24:48;13.70;77.60
4874;DHT22;2451;49.970;9.068;2023-04-06T09:27:14;13.90;76.20
4874;DHT22;2451;49.970;9.068;2023-04-06T09:29:44;14.20;75.70
4874;DHT22;2451;49.970;9.068;2023-04-06T09:32:11;14.30;73.50
4874;DHT22;2451;49.970;9.068;2023-04-06T09:34:38;14.50;72.50
4874;DHT22;2451;49.970;9.068;2023-04-06T09:37:17;14.80;71.70
4874;DHT22;2451;49.970;9.068;2023-04-06T09:39:43;15.00;68.90
4874;DHT22;2451;49.970;9.068;2023-04-06T09:42:09;15.40;67.60
4874;DHT22;2451;49.970;9.068;2023-04-06T09:44:35;15.60;67.00
4874;DHT22;2451;49.970;9.068;2023-04-06T09:47:04;15.60;63.80
4874;DHT22;2451;49.970;9.068;2023-04-06T09:49:33;15.50;65.20
4874;DHT22;2451;49.970;9.068;2023-04-06T09:52:01;15.30;61.30
4874;DHT22;2451;49.970;9.068;2023-04-06T09:54:31;15.40;62.10
4874;DHT22;2451;49.970;9.068;2023-04-06T09:58:00;15.70;64.20
4874;DHT22;2451;49.970;9.068;2023-04-06T10:02:45;16.10;57.20
4874;DHT22;2451;49.970;9.068;2023-04-06T10:08:00;16.70;56.90
4874;DHT22;2451;49.970;9.068;2023-04-06T10:10:30;16.10;57.50
4874;DHT22;2451;49.970;9.068;2023-04-06T10:12:56;16.40;56.50
4874;DHT22;2451;49.970;9.068;2023-04-06T10:15:21;16.60;58.50
4874;DHT22;2451;49.970;9.068;2023-04-06T10:17:47;16.90;56.00
4874;DHT22;2451;49.970;9.068;2023-04-06T10:20:43;17.40;57.70
4874;DHT22;2451;49.970;9.068;2023-04-06T10:23:24;18.00;56.20
4874;DHT22;2451;49.970;9.068;2023-04-06T10:25:53;18.00;53.00
4874;DHT22;2451;49.970;9.068;2023-04-06T10:28:20;17.90;54.10
4874;DHT22;2451;49.970;9.068;2023-04-06T10:30:45;17.80;51.40
4874;DHT22;2451;49.970;9.068;2023-04-06T10:33:15;17.90;53.20
4874;DHT22;2451;49.970;9.068;2023-04-06T10:35:41;18.20;53.50
4874;DHT22;2451;49.970;9.068;2023-04-06T10:38:07;18.70;54.80
4874;DHT22;2451;49.970;9.068;2023-04-06T10:40:36;19.20;53.00
4874;DHT22;2451;49.970;9.068;2023-04-06T10:43:12;19.70;51.60
4874;DHT22;2451;49.970;9.068;2023-04-06T10:45:38;19.60;48.90
4874;DHT22;2451;49.970;9.068;2023-04-06T10:48:17;19.50;48.40
4874;DHT22;2451;49.970;9.068;2023-04-06T10:50:47;19.30;46.20
4874;DHT22;2451;49.970;9.068;2023-04-06T10:53:29;18.90;43.80
4874;DHT22;2451;49.970;9.068;2023-04-06T10:55:56;18.80;44.60
4874;DHT22;2451;49.970;9.068;2023-04-06T10:58:26;18.60;46.60
4874;DHT22;2451;49.970;9.068;2023-04-06T11:00:53;18.50;46.30
4874;DHT22;2451;49.970;9.068;2023-04-06T11:03:19;18.40;46.70
4874;DHT22;2451;49.970;9.068;2023-04-06T11:05:46;18.50;44.40
4874;DHT22;2451;49.970;9.068;2023-04-06T11:08:32;18.40;45.30
4874;DHT22;2451;49.970;9.068;2023-04-06T11:11:08;18.10;45.40
4874;DHT22;2451;49.970;9.068;2023-04-06T11:13:45;17.40;46.90
4874;DHT22;2451;49.970;9.068;2023-04-06T11:16:16;17.50;47.40
4874;DHT22;2451;49.970;9.068;2023-04-06T11:18:58;17.70;46.50
4874;DHT22;2451;49.970;9.068;2023-04-06T11:21:44;17.60;46.60
4874;DHT22;2451;49.970;9.068;2023-04-06T11:24:21;17.80;46.20
4874;DHT22;2451;49.970;9.068;2023-04-06T11:26:49;17.90;48.30
4874;DHT22;2451;49.970;9.068;2023-04-06T11:29:27;18.20;46.50
4874;DHT22;2451;49.970;9.068;2023-04-06T11:31:57;18.20;43.60
4874;DHT22;2451;49.970;9.068;2023-04-06T11:34:24;18.20;43.30
4874;DHT22;2451;49.970;9.068;2023-04-06T11:36:58;17.90;43.10
4874;DHT22;2451;49.970;9.068;2023-04-06T11:39:26;17.80;42.00
4874;DHT22;2451;49.970;9.068;2023-04-06T11:42:02;17.70;42.60
4874;DHT22;2451;49.970;9.068;2023-04-06T11:44:39;18.30;43.80
4874;DHT22;2451;49.970;9.068;2023-04-06T11:47:06;18.50;41.60
4874;DHT22;2451;49.970;9.068;2023-04-06T11:49:36;18.50;43.10
4874;DHT22;2451;49.970;9.068;2023-04-06T11:52:03;18.40;42.60
4874;DHT22;2451;49.970;9.068;2023-04-06T11:54:38;18.30;41.70
4874;DHT22;2451;49.970;9.068;2023-04-06T11:57:05;18.60;42.50
4874;DHT22;2451;49.970;9.068;2023-04-06T11:59:31;18.60;42.50
4874;DHT22;2451;49.970;9.068;2023-04-06T12:01:57;18.60;42.00
4874;DHT22;2451;49.970;9.068;2023-04-06T12:04:24;18.50;41.90
4874;DHT22;2451;49.970;9.068;2023-04-06T12:06:50;18.30;44.20
4874;DHT22;2451;49.970;9.068;2023-04-06T12:09:16;18.80;42.30
4874;DHT22;2451;49.970;9.068;2023-04-06T12:11:43;18.70;41.60
4874;DHT22;2451;49.970;9.068;2023-04-06T12:14:08;18.30;41.10
4874;DHT22;2451;49.970;9.068;2023-04-06T12:16:34;18.20;41.10
4874;DHT22;2451;49.970;9.068;2023-04-06T12:19:00;18.20;39.40
4874;DHT22;2451;49.970;9.068;2023-04-06T12:21:29;18.10;40.80
4874;DHT22;2451;49.970;9.068;2023-04-06T12:23:59;18.10;40.40
4874;DHT22;2451;49.970;9.068;2023-04-06T12:26:26;18.20;39.60
4874;DHT22;2451;49.970;9.068;2023-04-06T12:28:52;18.40;40.40
4874;DHT22;2451;49.970;9.068;2023-04-06T12:31:19;18.60;40.30
4874;DHT22;2451;49.970;9.068;2023-04-06T12:33:52;18.10;40.30
4874;DHT22;2451;49.970;9.068;2023-04-06T12:36:20;18.00;39.80
4874;DHT22;2451;49.970;9.068;2023-04-06T12:38:50;18.30;40.90
4874;DHT22;2451;49.970;9.068;2023-04-06T12:41:18;17.80;40.00
4874;DHT22;2451;49.970;9.068;2023-04-06T12:43:45;17.40;38.90
4874;DHT22;2451;49.970;9.068;2023-04-06T12:46:11;17.40;40.20
4874;DHT22;2451;49.970;9.068;2023-04-06T12:48:37;17.10;40.40
4874;DHT22;2451;49.970;9.068;2023-04-06T12:51:05;17.10;40.10
4874;DHT22;2451;49.970;9.068;2023-04-06T12:53:31;17.00;41.60
4874;DHT22;2451;49.970;9.068;2023-04-06T12:55:57;17.20;41.60
4874;DHT22;2451;49.970;9.068;2023-04-06T12:58:24;16.90;40.80
4874;DHT22;2451;49.970;9.068;2023-04-06T13:00:52;16.70;40.80
4874;DHT22;2451;49.970;9.068;2023-04-06T13:03:18;16.50;40.90
4874;DHT22;2451;49.970;9.068;2023-04-06T13:05:47;16.60;41.10
4874;DHT22;2451;49.970;9.068;2023-04-06T13:08:14;16.50;41.60
4874;DHT22;2451;49.970;9.068;2023-04-06T13:10:50;16.30;40.60
4874;DHT22;2451;49.970;9.068;2023-04-06T13:13:16;16.30;40.50
4874;DHT22;2451;49.970;9.068;2023-04-06T13:15:42;16.30;41.30
4874;DHT22;2451;49.970;9.068;2023-04-06T13:18:08;16.40;41.50
4874;DHT22;2451;49.970;9.068;2023-04-06T13:20:34;16.30;40.80
4874;DHT22;2451;49.970;9.068;2023-04-06T13:22:59;16.10;40.40
4874;DHT22;2451;49.970;9.068;2023-04-06T13:25:25;16.00;40.30
4874;DHT22;2451;49.970;9.068;2023-04-06T13:27:50;15.80;40.20
4874;DHT22;2451;49.970;9.068;2023-04-06T13:30:16;15.70;39.60
4874;DHT22;2451;49.970;9.068;2023-04-06T13:32:42;15.70;39.80
4874;DHT22;2451;49.970;9.068;2023-04-06T13:35:08;15.80;38.70
4874;DHT22;2451;49.970;9.068;2023-04-06T13:37:34;15.90;39.10
4874;DHT22;2451;49.970;9.068;2023-04-06T13:40:01;15.90;40.70
4874;DHT22;2451;49.970;9.068;2023-04-06T13:42:27;15.90;39.50
4874;DHT22;2451;49.970;9.068;2023-04-06T13:44:53;15.90;39.40
4874;DHT22;2451;49.970;9.068;2023-04-06T13:47:19;16.00;39.50
4874;DHT22;2451;49.970;9.068;2023-04-06T13:49:46;15.80;40.10
4874;DHT22;2451;49.970;9.068;2023-04-06T13:52:13;15.80;39.70
4874;DHT22;2451;49.970;9.068;2023-04-06T13:54:39;15.60;39.40
4874;DHT22;2451;49.970;9.068;2023-04-06T13:57:04;15.50;39.10
4874;DHT22;2451;49.970;9.068;2023-04-06T13:59:33;15.50;40.90
4874;DHT22;2451;49.970;9.068;2023-04-06T14:01:59;15.50;40.50
4874;DHT22;2451;49.970;9.068;2023-04-06T14:04:25;15.30;39.60
4874;DHT22;2451;49.970;9.068;2023-04-06T14:06:50;15.40;41.10
4874;DHT22;2451;49.970;9.068;2023-04-06T14:09:16;15.40;39.90
4874;DHT22;2451;49.970;9.068;2023-04-06T14:11:41;15.60;39.90
4874;DHT22;2451;49.970;9.068;2023-04-06T14:14:07;15.80;39.80
4874;DHT22;2451;49.970;9.068;2023-04-06T14:16:32;16.00;40.90
4874;DHT22;2451;49.970;9.068;2023-04-06T14:18:58;16.30;41.40
4874;DHT22;2451;49.970;9.068;2023-04-06T14:21:24;16.60;40.30
4874;DHT22;2451;49.970;9.068;2023-04-06T14:23:50;16.60;39.10
4874;DHT22;2451;49.970;9.068;2023-04-06T14:26:16;16.60;38.80
4874;DHT22;2451;49.970;9.068;2023-04-06T14:28:42;16.60;39.20
4874;DHT22;2451;49.970;9.068;2023-04-06T14:31:12;16.30;38.90
4874;DHT22;2451;49.970;9.068;2023-04-06T14:33:39;16.10;39.30
4874;DHT22;2451;49.970;9.068;2023-04-06T14:36:05;16.00;39.90
4874;DHT22;2451;49.970;9.068;2023-04-06T14:38:31;15.80;39.20
4874;DHT22;2451;49.970;9.068;2023-04-06T14:40:57;15.70;38.90
4874;DHT22;2451;49.970;9.068;2023-04-06T14:43:23;15.80;40.60
4874;DHT22;2451;49.970;9.068;2023-04-06T14:45:48;16.00;43.30
4874;DHT22;2451;49.970;9.068;2023-04-06T14:48:14;16.20;39.70
4874;DHT22;2451;49.970;9.068;2023-04-06T14:50:41;16.10;39.10
4874;DHT22;2451;49.970;9.068;2023-04-06T14:53:06;16.00;38.50
4874;DHT22;2451;49.970;9.068;2023-04-06T14:55:32;16.10;39.10
4874;DHT22;2451;49.970;9.068;2023-04-06T14:57:58;16.10;38.10
4874;DHT22;2451;49.970;9.068;2023-04-06T15:00:23;16.40;39.30
4874;DHT22;2451;49.970;9.068;2023-04-06T15:02:49;16.60;39.40
4874;DHT22;2451;49.970;9.068;2023-04-06T15:05:14;16.60;39.40
4874;DHT22;2451;49.970;9.068;2023-04-06T15:07:40;16.60;38.90
4874;DHT22;2451;49.970;9.068;2023-04-06T15:10:07;16.60;39.10
4874;DHT22;2451;49.970;9.068;2023-04-06T15:12:35;16.50;39.80
4874;DHT22;2451;49.970;9.068;2023-04-06T15:15:01;16.30;40.20
4874;DHT22;2451;49.970;9.068;2023-04-06T15:17:26;16.10;39.70
4874;DHT22;2451;49.970;9.068;2023-04-06T15:19:52;16.00;40.20
4874;DHT22;2451;49.970;9.068;2023-04-06T15:22:18;16.00;39.70
4874;DHT22;2451;49.970;9.068;2023-04-06T15:24:44;15.70;39.70
4874;DHT22;2451;49.970;9.068;2023-04-06T15:27:10;15.50;40.10
4874;DHT22;2451;49.970;9.068;2023-04-06T15:29:35;15.30;40.10
4874;DHT22;2451;49.970;9.068;2023-04-06T15:32:01;15.10;41.30
4874;DHT22;2451;49.970;9.068;2023-04-06T15:34:27;14.90;41.20
4874;DHT22;2451;49.970;9.068;2023-04-06T15:36:55;14.80;42.20
4874;DHT22;2451;49.970;9.068;2023-04-06T15:39:24;14.70;42.70
4874;DHT22;2451;49.970;9.068;2023-04-06T15:41:49;14.60;42.20
4874;DHT22;2451;49.970;9.068;2023-04-06T15:44:16;14.50;41.70
4874;DHT22;2451;49.970;9.068;2023-04-06T15:46:43;14.40;41.80
4874;DHT22;2451;49.970;9.068;2023-04-06T15:49:09;14.30;43.90
4874;DHT22;2451;49.970;9.068;2023-04-06T15:51:35;14.30;43.20
4874;DHT22;2451;49.970;9.068;2023-04-06T15:54:01;14.20;42.80
4874;DHT22;2451;49.970;9.068;2023-04-06T15:56:26;14.20;43.00
4874;DHT22;2451;49.970;9.068;2023-04-06T15:58:52;14.30;43.10
4874;DHT22;2451;49.970;9.068;2023-04-06T16:01:17;14.20;42.50
4874;DHT22;2451;49.970;9.068;2023-04-06T16:03:43;14.20;43.40
4874;DHT22;2451;49.970;9.068;2023-04-06T16:06:10;14.10;44.20
4874;DHT22;2451;49.970;9.068;2023-04-06T16:08:36;14.10;43.40
4874;DHT22;2451;49.970;9.068;2023-04-06T16:11:02;14.10;43.00